createdAt,value
2018-08-05T00:00:10.091Z,1016.91
2018-08-05T00:01:10.123Z,1016.90
2018-08-05T00:02:10.156Z,1016.91
2018-08-05T00:03:10.202Z,1016.88
2018-08-05T00:04:10.529Z,1016.92
2018-08-05T00:05:10.269Z,1016.92
2018-08-05T00:06:10.306Z,1016.95
2018-08-05T00:07:10.340Z,1016.97
2018-08-05T00:08:10.330Z,1016.95
2018-08-05T00:09:10.408Z,1016.95
2018-08-05T00:10:10.751Z,1016.99
2018-08-05T00:11:10.433Z,1016.98
2018-08-05T00:12:10.519Z,1017.02
2018-08-05T00:13:10.553Z,1016.99
2018-08-05T00:14:10.572Z,1017.01
2018-08-05T00:15:10.580Z,1016.94
2018-08-05T00:16:10.912Z,1016.97
2018-08-05T00:17:10.695Z,1016.98
2018-08-05T00:18:10.725Z,1016.97
2018-08-05T00:19:10.712Z,1017.02
2018-08-05T00:20:10.747Z,1017.01
2018-08-05T00:21:10.788Z,1017.10
2018-08-05T00:22:10.879Z,1017.04
2018-08-05T00:23:11.169Z,1017.07
2018-08-05T00:24:10.984Z,1017.06
2018-08-05T00:25:10.978Z,1017.04
2018-08-05T00:26:11.013Z,1017.06
2018-08-05T00:27:11.046Z,1017.06
2018-08-05T00:28:11.036Z,1017.11
2018-08-05T00:29:11.094Z,1017.12
2018-08-05T00:30:11.409Z,1017.09
2018-08-05T00:31:11.190Z,1017.16
2018-08-05T00:32:11.176Z,1017.10
2018-08-05T00:33:11.257Z,1017.14
2018-08-05T00:34:11.248Z,1017.16
2018-08-05T00:35:11.351Z,1017.08
2018-08-05T00:36:11.337Z,1017.14
2018-08-05T00:37:11.703Z,1017.10
2018-08-05T00:38:11.389Z,1017.16
2018-08-05T00:39:11.421Z,1017.14
2018-08-05T00:40:11.512Z,1017.09
2018-08-05T00:41:11.491Z,1017.12
2018-08-05T00:42:11.584Z,1017.10
2018-08-05T00:43:11.614Z,1017.12
2018-08-05T00:44:11.904Z,1017.11
2018-08-05T00:45:11.685Z,1017.09
2018-08-05T00:46:11.717Z,1017.07
2018-08-05T00:47:11.705Z,1017.11
2018-08-05T00:48:11.846Z,1017.02
2018-08-05T00:49:11.829Z,1017.03
2018-08-05T00:50:11.861Z,1017.00
2018-08-05T00:51:12.141Z,1017.06
2018-08-05T00:52:11.900Z,1017.08
2018-08-05T00:53:11.967Z,1017.06
2018-08-05T00:54:12.009Z,1017.08
2018-08-05T00:55:11.984Z,1017.06
2018-08-05T00:56:12.078Z,1017.07
2018-08-05T00:57:12.112Z,1017.06
2018-08-05T00:58:12.386Z,1017.05
2018-08-05T00:59:12.196Z,1017.06
2018-08-05T01:00:12.174Z,1017.07
2018-08-05T01:01:12.248Z,1017.04
2018-08-05T01:02:12.235Z,1017.09
2018-08-05T01:03:12.289Z,1017.11
2018-08-05T01:04:12.349Z,1017.08
2018-08-05T01:05:12.635Z,1017.08
2018-08-05T01:06:12.423Z,1017.10
2018-08-05T01:07:12.402Z,1017.06
2018-08-05T01:08:12.443Z,1017.08
2018-08-05T01:09:12.473Z,1017.12
2018-08-05T01:10:12.571Z,1017.12
2018-08-05T01:11:12.544Z,1017.09
2018-08-05T01:12:12.887Z,1017.07
2018-08-05T01:13:12.674Z,1017.08
2018-08-05T01:14:12.645Z,1017.12
2018-08-05T01:15:12.739Z,1017.09
2018-08-05T01:16:12.720Z,1017.13
2018-08-05T01:17:12.760Z,1017.13
2018-08-05T01:18:12.860Z,1017.10
2018-08-05T01:19:13.182Z,1017.12
2018-08-05T01:20:12.859Z,1017.16
2018-08-05T01:21:12.950Z,1017.10
2018-08-05T01:22:12.979Z,1017.12
2018-08-05T01:23:12.984Z,1017.13
2018-08-05T01:24:13.061Z,1017.12
2018-08-05T01:25:13.093Z,1017.13
2018-08-05T01:26:13.430Z,1017.17
2018-08-05T01:27:13.107Z,1017.15
2018-08-05T01:28:13.193Z,1017.18
2018-08-05T01:29:13.228Z,1017.15
2018-08-05T01:30:13.222Z,1017.15
2018-08-05T01:31:13.302Z,1017.17
2018-08-05T01:32:13.281Z,1017.18
2018-08-05T01:33:13.615Z,1017.14
2018-08-05T01:34:13.420Z,1017.16
2018-08-05T01:35:13.434Z,1017.13
2018-08-05T01:36:13.474Z,1017.13
2018-08-05T01:37:13.457Z,1017.15
2018-08-05T01:38:13.542Z,1017.16
2018-08-05T01:39:13.830Z,1017.13
2018-08-05T01:40:13.566Z,1017.16
2018-08-05T01:41:13.593Z,1017.14
2018-08-05T01:42:13.631Z,1017.16
2018-08-05T01:43:13.713Z,1017.15
2018-08-05T01:44:13.697Z,1017.20
2018-08-05T01:45:14.055Z,1017.17
2018-08-05T01:46:13.789Z,1017.16
2018-08-05T01:47:13.808Z,1017.20
2018-08-05T01:48:13.909Z,1017.16
2018-08-05T01:49:13.936Z,1017.21
2018-08-05T01:50:13.961Z,1017.26
2018-08-05T01:51:14.262Z,1017.24
2018-08-05T01:52:13.985Z,1017.19
2018-08-05T01:53:14.045Z,1017.31
2018-08-05T01:54:14.097Z,1017.27
2018-08-05T01:55:14.140Z,1017.28
2018-08-05T01:56:14.130Z,1017.23
2018-08-05T01:57:14.201Z,1017.24
2018-08-05T01:58:14.486Z,1017.25
2018-08-05T01:59:14.222Z,1017.27
2018-08-05T02:00:14.264Z,1017.30
2018-08-05T02:01:14.298Z,1017.29
2018-08-05T02:02:14.374Z,1017.32
2018-08-05T02:03:14.371Z,1017.36
2018-08-05T02:04:14.397Z,1017.31
2018-08-05T02:05:14.783Z,1017.33
2018-08-05T02:06:14.518Z,1017.32
2018-08-05T02:07:14.551Z,1017.33
2018-08-05T02:08:14.641Z,1017.32
2018-08-05T02:09:14.625Z,1017.32
2018-08-05T02:10:14.603Z,1017.30
2018-08-05T02:11:14.711Z,1017.32
2018-08-05T02:12:14.972Z,1017.31
2018-08-05T02:13:14.763Z,1017.32
2018-08-05T02:14:14.798Z,1017.28
2018-08-05T02:15:14.889Z,1017.27
2018-08-05T02:16:14.814Z,1017.32
2018-08-05T02:17:14.898Z,1017.27
2018-08-05T02:18:14.946Z,1017.34
2018-08-05T02:19:15.265Z,1017.32
2018-08-05T02:20:14.953Z,1017.30
2018-08-05T02:21:15.053Z,1017.24
2018-08-05T02:22:15.029Z,1017.29
2018-08-05T02:23:15.112Z,1017.28
2018-08-05T02:24:15.095Z,1017.26
2018-08-05T02:25:15.210Z,1017.25
2018-08-05T02:26:15.468Z,1017.25
2018-08-05T02:27:15.246Z,1017.19
2018-08-05T02:28:15.291Z,1017.23
2018-08-05T02:29:15.318Z,1017.24
2018-08-05T02:30:15.354Z,1017.27
2018-08-05T02:31:15.396Z,1017.23
2018-08-05T02:32:15.394Z,1017.24
2018-08-05T02:33:15.703Z,1017.23
2018-08-05T02:34:15.491Z,1017.23
2018-08-05T02:35:15.524Z,1017.26
2018-08-05T02:36:15.519Z,1017.24
2018-08-05T02:37:15.604Z,1017.26
2018-08-05T02:38:15.631Z,1017.29
2018-08-05T02:39:15.613Z,1017.30
2018-08-05T02:40:15.944Z,1017.26
2018-08-05T02:41:15.730Z,1017.29
2018-08-05T02:42:15.767Z,1017.32
2018-08-05T02:43:15.811Z,1017.35
2018-08-05T02:44:15.787Z,1017.31
2018-08-05T02:45:15.868Z,1017.32
2018-08-05T02:46:15.855Z,1017.31
2018-08-05T02:47:16.184Z,1017.27
2018-08-05T02:48:15.978Z,1017.30
2018-08-05T02:49:16.017Z,1017.33
2018-08-05T02:50:15.992Z,1017.34
2018-08-05T02:51:16.035Z,1017.34
2018-08-05T02:52:16.064Z,1017.37
2018-08-05T02:53:16.144Z,1017.38
2018-08-05T02:54:16.430Z,1017.46
2018-08-05T02:55:16.170Z,1017.40
2018-08-05T02:56:16.204Z,1017.46
2018-08-05T02:57:16.292Z,1017.42
2018-08-05T02:58:16.272Z,1017.48
2018-08-05T02:59:16.352Z,1017.44
2018-08-05T03:00:16.386Z,1017.46
2018-08-05T03:01:16.673Z,1017.47
2018-08-05T03:02:16.478Z,1017.49
2018-08-05T03:03:16.494Z,1017.49
2018-08-05T03:06:16.595Z,1017.49
2018-08-05T03:07:16.633Z,1017.51
2018-08-05T03:08:16.960Z,1017.50
2018-08-05T03:09:16.809Z,1017.52
2018-08-05T03:10:16.744Z,1017.53
2018-08-05T03:11:16.771Z,1017.55
2018-08-05T03:12:16.751Z,1017.48
2018-08-05T03:13:16.841Z,1017.55
2018-08-05T03:14:16.870Z,1017.57
2018-08-05T03:15:17.220Z,1017.56
2018-08-05T03:16:16.945Z,1017.55
2018-08-05T03:17:16.969Z,1017.58
2018-08-05T03:18:16.954Z,1017.55
2018-08-05T03:19:16.998Z,1017.54
2018-08-05T03:20:17.071Z,1017.59
2018-08-05T03:21:17.364Z,1017.57
2018-08-05T03:22:17.098Z,1017.59
2018-08-05T03:23:17.185Z,1017.57
2018-08-05T03:24:17.165Z,1017.56
2018-08-05T03:25:17.249Z,1017.56
2018-08-05T03:26:17.287Z,1017.56
2018-08-05T03:27:17.573Z,1017.56
2018-08-05T03:28:17.305Z,1017.53
2018-08-05T03:29:17.381Z,1017.57
2018-08-05T03:30:17.371Z,1017.58
2018-08-05T03:31:17.460Z,1017.59
2018-08-05T03:32:17.454Z,1017.55
2018-08-05T03:33:17.766Z,1017.59
2018-08-05T03:34:17.501Z,1017.61
2018-08-05T03:35:17.533Z,1017.60
2018-08-05T03:36:17.619Z,1017.61
2018-08-05T03:37:17.609Z,1017.59
2018-08-05T03:38:17.643Z,1017.66
2018-08-05T03:39:17.675Z,1017.60
2018-08-05T03:41:18.048Z,1017.64
2018-08-05T03:42:17.830Z,1017.65
2018-08-05T03:43:17.811Z,1017.69
2018-08-05T03:44:17.899Z,1017.69
2018-08-05T03:45:17.932Z,1017.66
2018-08-05T03:46:17.970Z,1017.72
2018-08-05T03:47:18.247Z,1017.71
2018-08-05T03:48:17.982Z,1017.68
2018-08-05T03:49:18.082Z,1017.73
2018-08-05T03:51:18.151Z,1017.72
2018-08-05T03:52:18.127Z,1017.78
2018-08-05T03:53:18.208Z,1017.76
2018-08-05T03:54:18.487Z,1017.77
2018-08-05T03:55:18.277Z,1017.75
2018-08-05T03:56:18.256Z,1017.77
2018-08-05T03:57:18.347Z,1017.84
2018-08-05T03:58:18.375Z,1017.84
2018-08-05T03:59:18.358Z,1017.83
2018-08-05T04:00:18.393Z,1017.81
2018-08-05T04:02:18.760Z,1017.87
2018-08-05T04:03:18.545Z,1017.80
2018-08-05T04:04:18.579Z,1017.82
2018-08-05T04:05:18.714Z,1017.80
2018-08-05T04:06:18.599Z,1017.79
2018-08-05T04:07:18.678Z,1017.81
2018-08-05T04:08:18.668Z,1017.84
2018-08-05T04:09:19.094Z,1017.80
2018-08-05T04:10:18.739Z,1017.79
2018-08-05T04:12:18.851Z,1017.79
2018-08-05T04:13:18.880Z,1017.82
2018-08-05T04:14:18.868Z,1017.78
2018-08-05T04:15:18.950Z,1017.79
2018-08-05T04:16:18.988Z,1017.82
2018-08-05T04:17:19.023Z,1017.77
2018-08-05T04:18:19.051Z,1017.78
2018-08-05T04:19:19.090Z,1017.77
2018-08-05T04:20:19.124Z,1017.74
2018-08-05T04:21:19.159Z,1017.79
2018-08-05T04:22:19.440Z,1017.82
2018-08-05T04:23:19.226Z,1017.82
2018-08-05T04:24:19.208Z,1017.85
2018-08-05T04:25:19.290Z,1017.83
2018-08-05T04:26:19.276Z,1017.83
2018-08-05T04:28:19.400Z,1017.79
2018-08-05T04:29:19.731Z,1017.82
2018-08-05T04:30:19.420Z,1017.84
2018-08-05T04:31:19.449Z,1017.83
2018-08-05T04:32:20.030Z,1017.84
2018-08-05T04:33:19.570Z,1017.86
2018-08-05T04:34:19.997Z,1017.85
2018-08-05T04:35:19.654Z,1017.89
2018-08-05T04:37:19.650Z,1017.86
2018-08-05T04:38:19.743Z,1017.89
2018-08-05T04:39:19.770Z,1017.89
2018-08-05T04:40:19.757Z,1017.91
2018-08-05T04:41:19.834Z,1017.92
2018-08-05T04:42:19.825Z,1017.91
2018-08-05T04:43:20.202Z,1017.90
2018-08-05T04:44:19.898Z,1017.89
2018-08-05T04:45:19.983Z,1017.90
2018-08-05T04:46:19.962Z,1017.91
2018-08-05T04:47:19.997Z,1017.92
2018-08-05T04:48:20.022Z,1017.95
2018-08-05T04:49:20.062Z,1017.94
2018-08-05T04:50:20.444Z,1017.95
2018-08-05T04:51:20.124Z,1017.90
2018-08-05T04:52:20.161Z,1017.93
2018-08-05T04:53:20.247Z,1017.90
2018-08-05T04:54:20.230Z,1017.94
2018-08-05T04:55:20.313Z,1017.92
2018-08-05T04:56:20.300Z,1017.92
2018-08-05T04:57:20.630Z,1017.90
2018-08-05T04:58:20.368Z,1017.90
2018-08-05T04:59:20.453Z,1017.89
2018-08-05T05:00:20.491Z,1017.89
2018-08-05T05:01:20.522Z,1017.94
2018-08-05T05:02:20.557Z,1017.89
2018-08-05T05:03:20.838Z,1017.93
2018-08-05T05:04:20.568Z,1017.91
2018-08-05T05:05:20.654Z,1017.92
2018-08-05T05:06:20.694Z,1017.94
2018-08-05T05:07:20.677Z,1017.94
2018-08-05T05:08:20.721Z,1017.89
2018-08-05T05:09:21.044Z,1017.90
2018-08-05T05:10:20.776Z,1017.92
2018-08-05T05:11:20.863Z,1017.94
2018-08-05T05:12:20.849Z,1017.92
2018-08-05T05:13:20.936Z,1017.99
2018-08-05T05:14:20.909Z,1017.96
2018-08-05T05:15:21.247Z,1017.94
2018-08-05T05:16:20.977Z,1017.97
2018-08-05T05:17:21.076Z,1017.98
2018-08-05T05:18:21.105Z,1017.96
2018-08-05T05:19:21.084Z,1017.98
2018-08-05T05:20:21.114Z,1018.02
2018-08-05T05:21:21.219Z,1018.03
2018-08-05T05:22:21.488Z,1018.01
2018-08-05T05:23:21.273Z,1018.00
2018-08-05T05:24:21.252Z,1018.00
2018-08-05T05:25:21.353Z,1018.02
2018-08-05T05:26:21.338Z,1018.00
2018-08-05T05:27:21.453Z,1018.00
2018-08-05T05:28:21.447Z,1017.96
2018-08-05T05:29:21.738Z,1017.99
2018-08-05T05:30:21.465Z,1017.99
2018-08-05T05:31:21.495Z,1018.04
2018-08-05T05:32:21.524Z,1018.01
2018-08-05T05:33:21.628Z,1018.06
2018-08-05T05:34:21.656Z,1018.03
2018-08-05T05:35:21.632Z,1018.03
2018-08-05T05:36:22.006Z,1018.07
2018-08-05T05:37:21.751Z,1018.08
2018-08-05T05:38:21.746Z,1018.11
2018-08-05T05:39:21.817Z,1018.13
2018-08-05T05:40:21.800Z,1018.15
2018-08-05T05:41:21.847Z,1018.14
2018-08-05T05:42:21.934Z,1018.13
2018-08-05T05:43:22.205Z,1018.12
2018-08-05T05:44:21.945Z,1018.09
2018-08-05T05:45:22.026Z,1018.13
2018-08-05T05:46:22.058Z,1018.08
2018-08-05T05:47:22.092Z,1018.10
2018-08-05T05:48:22.131Z,1018.12
2018-08-05T05:49:22.106Z,1018.07
2018-08-05T05:50:22.498Z,1018.10
2018-08-05T05:51:22.189Z,1018.15
2018-08-05T05:52:22.263Z,1018.14
2018-08-05T05:53:22.300Z,1018.15
2018-08-05T05:54:22.287Z,1018.16
2018-08-05T05:55:22.363Z,1018.19
2018-08-05T05:56:22.355Z,1018.17
2018-08-05T05:57:22.740Z,1018.17
2018-08-05T05:58:22.419Z,1018.20
2018-08-05T05:59:22.499Z,1018.20
2018-08-05T06:00:22.539Z,1018.22
2018-08-05T06:01:22.578Z,1018.20
2018-08-05T06:02:22.615Z,1018.22
2018-08-05T06:03:22.646Z,1018.23
2018-08-05T06:04:22.922Z,1018.27
2018-08-05T06:05:22.663Z,1018.24
2018-08-05T06:06:22.754Z,1018.30
2018-08-05T06:07:22.731Z,1018.32
2018-08-05T06:08:22.788Z,1018.31
2018-08-05T06:09:22.845Z,1018.30
2018-08-05T06:10:22.885Z,1018.31
2018-08-05T06:11:23.323Z,1018.31
2018-08-05T06:12:22.953Z,1018.36
2018-08-05T06:13:22.991Z,1018.32
2018-08-05T06:14:22.989Z,1018.31
2018-08-05T06:15:23.067Z,1018.32
2018-08-05T06:16:23.096Z,1018.34
2018-08-05T06:17:23.477Z,1018.33
2018-08-05T06:18:23.512Z,1018.30
2018-08-05T06:19:23.158Z,1018.33
2018-08-05T06:20:23.240Z,1018.33
2018-08-05T06:21:23.323Z,1018.31
2018-08-05T06:22:23.250Z,1018.29
2018-08-05T06:24:23.371Z,1018.25
2018-08-05T06:25:23.652Z,1018.25
2018-08-05T06:26:24.643Z,1018.25
2018-08-05T06:27:23.472Z,1018.29
2018-08-05T06:28:23.464Z,1018.28
2018-08-05T06:29:23.491Z,1018.32
2018-08-05T06:30:23.531Z,1018.29
2018-08-05T06:31:23.639Z,1018.31
2018-08-05T06:32:23.661Z,1018.35
2018-08-05T06:33:23.683Z,1018.30
2018-08-05T06:34:23.719Z,1018.30
2018-08-05T06:35:23.708Z,1018.33
2018-08-05T06:36:23.739Z,1018.34
2018-08-05T06:37:23.830Z,1018.37
2018-08-05T06:38:24.156Z,1018.34
2018-08-05T06:39:23.847Z,1018.35
2018-08-05T06:40:23.927Z,1018.36
2018-08-05T06:41:23.913Z,1018.38
2018-08-05T06:42:23.959Z,1018.39
2018-08-05T06:43:24.035Z,1018.37
2018-08-05T06:44:24.420Z,1018.35
2018-08-05T06:45:24.099Z,1018.38
2018-08-05T06:46:24.141Z,1018.36
2018-08-05T06:47:24.131Z,1018.36
2018-08-05T06:48:24.329Z,1018.37
2018-08-05T06:49:24.247Z,1018.42
2018-08-05T06:50:24.584Z,1018.42
2018-08-05T06:51:24.315Z,1018.43
2018-08-05T06:52:24.297Z,1018.39
2018-08-05T06:53:24.389Z,1018.42
2018-08-05T06:54:24.368Z,1018.42
2018-08-05T06:55:24.453Z,1018.41
2018-08-05T06:57:24.538Z,1018.41
2018-08-05T06:58:24.811Z,1018.41
2018-08-05T06:59:24.591Z,1018.37
2018-08-05T07:00:24.580Z,1018.44
2018-08-05T07:01:24.664Z,1018.42
2018-08-05T07:02:24.698Z,1018.42
2018-08-05T07:03:24.731Z,1018.47
2018-08-05T07:04:24.720Z,1018.46
2018-08-05T07:05:24.810Z,1018.43
2018-08-05T07:06:24.795Z,1018.44
2018-08-05T07:07:24.879Z,1018.41
2018-08-05T07:08:24.858Z,1018.43
2018-08-05T07:09:24.948Z,1018.43
2018-08-05T07:10:24.979Z,1018.43
2018-08-05T07:11:24.983Z,1018.46
2018-08-05T07:12:25.056Z,1018.47
2018-08-05T07:13:25.083Z,1018.45
2018-08-05T07:14:25.122Z,1018.47
2018-08-05T07:15:25.165Z,1018.48
2018-08-05T07:16:25.188Z,1018.43
2018-08-05T07:17:25.230Z,1018.44
2018-08-05T07:18:25.268Z,1018.45
2018-08-05T07:19:25.303Z,1018.45
2018-08-05T07:20:25.299Z,1018.47
2018-08-05T07:21:25.369Z,1018.46
2018-08-05T07:22:25.703Z,1018.50
2018-08-05T07:23:25.389Z,1018.51
2018-08-05T07:24:25.446Z,1018.52
2018-08-05T07:25:25.468Z,1018.54
2018-08-05T07:26:25.544Z,1018.54
2018-08-05T07:27:25.609Z,1018.56
2018-08-05T07:28:25.868Z,1018.53
2018-08-05T07:29:25.648Z,1018.54
2018-08-05T07:30:25.694Z,1018.54
2018-08-05T07:31:25.669Z,1018.54
2018-08-05T07:32:25.755Z,1018.52
2018-08-05T07:33:25.795Z,1018.48
2018-08-05T07:34:26.127Z,1018.51
2018-08-05T07:36:25.850Z,1018.49
2018-08-05T07:37:25.884Z,1018.52
2018-08-05T07:38:25.971Z,1018.50
2018-08-05T07:39:25.952Z,1018.53
2018-08-05T07:40:26.351Z,1018.54
2018-08-05T07:41:26.080Z,1018.52
2018-08-05T07:42:26.114Z,1018.52
2018-08-05T07:43:26.098Z,1018.54
2018-08-05T07:44:26.184Z,1018.52
2018-08-05T07:45:26.169Z,1018.53
2018-08-05T07:46:26.206Z,1018.58
2018-08-05T07:47:26.541Z,1018.55
2018-08-05T07:48:26.277Z,1018.49
2018-08-05T07:49:26.363Z,1018.51
2018-08-05T07:50:26.394Z,1018.53
2018-08-05T07:51:26.377Z,1018.50
2018-08-05T07:52:26.415Z,1018.49
2018-08-05T07:53:26.500Z,1018.49
2018-08-05T07:54:26.485Z,1018.51
2018-08-05T07:55:26.577Z,1018.50
2018-08-05T07:56:26.701Z,1018.52
2018-08-05T07:57:26.598Z,1018.56
2018-08-05T07:58:26.639Z,1018.55
2018-08-05T07:59:26.667Z,1018.60
2018-08-05T08:00:27.004Z,1018.55
2018-08-05T08:01:26.791Z,1018.52
2018-08-05T08:02:26.821Z,1018.52
2018-08-05T08:03:26.859Z,1018.48
2018-08-05T08:04:26.897Z,1018.53
2018-08-05T08:05:26.928Z,1018.49
2018-08-05T08:06:27.065Z,1018.51
2018-08-05T08:07:27.273Z,1018.51
2018-08-05T08:08:26.983Z,1018.52
2018-08-05T08:09:27.070Z,1018.46
2018-08-05T08:10:27.111Z,1018.52
2018-08-05T08:11:27.100Z,1018.52
2018-08-05T08:12:27.139Z,1018.49
2018-08-05T08:13:27.218Z,1018.47
2018-08-05T08:14:27.685Z,1018.46
2018-08-05T08:15:27.283Z,1018.48
2018-08-05T08:16:27.273Z,1018.43
2018-08-05T08:17:27.365Z,1018.44
2018-08-05T08:18:27.346Z,1018.47
2018-08-05T08:19:27.430Z,1018.49
2018-08-05T08:20:27.473Z,1018.49
2018-08-05T08:21:27.771Z,1018.52
2018-08-05T08:22:27.489Z,1018.53
2018-08-05T08:23:27.531Z,1018.54
2018-08-05T08:24:27.612Z,1018.53
2018-08-05T08:25:27.643Z,1018.53
2018-08-05T08:27:27.716Z,1018.56
2018-08-05T08:28:28.003Z,1018.59
2018-08-05T08:29:27.795Z,1018.63
2018-08-05T08:30:27.782Z,1018.59
2018-08-05T08:31:27.816Z,1018.61
2018-08-05T08:32:27.895Z,1018.59
2018-08-05T08:33:27.876Z,1018.58
2018-08-05T08:34:28.219Z,1018.58
2018-08-05T08:36:28.043Z,1018.62
2018-08-05T08:37:28.072Z,1018.64
2018-08-05T08:38:28.110Z,1018.62
2018-08-05T08:39:28.198Z,1018.60
2018-08-05T08:40:28.429Z,1018.61
2018-08-05T08:41:28.212Z,1018.61
2018-08-05T08:42:28.198Z,1018.68
2018-08-05T08:43:28.291Z,1018.58
2018-08-05T08:44:28.319Z,1018.54
2018-08-05T08:45:28.359Z,1018.54
2018-08-05T08:46:28.694Z,1018.61
2018-08-05T08:47:28.466Z,1018.59
2018-08-05T08:48:28.474Z,1018.58
2018-08-05T08:49:28.515Z,1018.58
2018-08-05T08:50:28.484Z,1018.58
2018-08-05T08:51:28.572Z,1018.60
2018-08-05T08:52:28.572Z,1018.61
2018-08-05T08:53:28.602Z,1018.55
2018-08-05T08:54:28.633Z,1018.55
2018-08-05T08:55:28.720Z,1018.66
2018-08-05T08:56:28.754Z,1018.55
2018-08-05T08:57:28.794Z,1018.53
2018-08-05T08:58:28.774Z,1018.56
2018-08-05T08:59:29.217Z,1018.50
2018-08-05T09:00:28.899Z,1018.55
2018-08-05T09:01:28.938Z,1018.57
2018-08-05T09:03:29.016Z,1018.60
2018-08-05T09:04:28.989Z,1018.58
2018-08-05T09:05:29.084Z,1018.53
2018-08-05T09:06:29.412Z,1018.50
2018-08-05T09:07:29.098Z,1018.61
2018-08-05T09:08:29.131Z,1018.54
2018-08-05T09:09:29.222Z,1018.54
2018-08-05T09:10:29.258Z,1018.53
2018-08-05T09:11:29.242Z,1018.51
2018-08-05T09:12:29.323Z,1018.55
2018-08-05T09:13:29.666Z,1018.61
2018-08-05T09:15:29.437Z,1018.54
2018-08-05T09:16:29.475Z,1018.51
2018-08-05T09:17:29.462Z,1018.54
2018-08-05T09:18:29.496Z,1018.49
2018-08-05T09:19:29.530Z,1018.49
2018-08-05T09:20:29.912Z,1018.47
2018-08-05T09:21:29.648Z,1018.52
2018-08-05T09:22:29.704Z,1018.48
2018-08-05T09:23:29.729Z,1018.49
2018-08-05T09:24:29.757Z,1018.51
2018-08-05T09:25:29.754Z,1018.48
2018-08-05T09:26:29.845Z,1018.49
2018-08-05T09:27:30.184Z,1018.59
2018-08-05T09:28:29.856Z,1018.60
2018-08-05T09:29:29.956Z,1018.56
2018-08-05T09:30:29.989Z,1018.56
2018-08-05T09:31:30.017Z,1018.54
2018-08-05T09:32:29.997Z,1018.53
2018-08-05T09:33:30.087Z,1018.55
2018-08-05T09:34:30.375Z,1018.53
2018-08-05T09:35:30.159Z,1018.56
2018-08-05T09:36:30.192Z,1018.53
2018-08-05T09:37:30.255Z,1018.52
2018-08-05T09:38:30.268Z,1018.51
2018-08-05T09:39:30.300Z,1018.53
2018-08-05T09:40:30.593Z,1018.49
2018-08-05T09:41:30.422Z,1018.48
2018-08-05T09:42:30.409Z,1018.49
2018-08-05T09:43:30.545Z,1018.49
2018-08-05T09:44:30.428Z,1018.62
2018-08-05T09:45:30.520Z,1018.58
2018-08-05T09:46:30.812Z,1018.57
2018-08-05T09:47:30.588Z,1018.59
2018-08-05T09:48:30.621Z,1018.66
2018-08-05T09:49:30.665Z,1018.62
2018-08-05T09:50:30.654Z,1018.63
2018-08-05T09:51:30.759Z,1018.62
2018-08-05T09:52:31.029Z,1018.62
2018-08-05T09:53:30.817Z,1018.59
2018-08-05T09:54:30.789Z,1018.55
2018-08-05T09:55:30.823Z,1018.57
2018-08-05T09:56:30.921Z,1018.56
2018-08-05T09:57:30.905Z,1018.52
2018-08-05T09:58:30.993Z,1018.53
2018-08-05T09:59:31.332Z,1018.56
2018-08-05T10:01:31.113Z,1018.52
2018-08-05T10:02:31.130Z,1018.51
2018-08-05T10:03:31.119Z,1018.48
2018-08-05T10:04:31.165Z,1018.48
2018-08-05T10:05:31.262Z,1018.47
2018-08-05T10:06:31.582Z,1018.45
2018-08-05T10:07:31.313Z,1018.47
2018-08-05T10:08:31.347Z,1018.48
2018-08-05T10:09:31.386Z,1018.51
2018-08-05T10:10:31.368Z,1018.49
2018-08-05T10:11:31.456Z,1018.50
2018-08-05T10:12:31.495Z,1018.51
2018-08-05T10:13:31.782Z,1018.49
2018-08-05T10:14:31.516Z,1018.47
2018-08-05T10:15:31.552Z,1018.50
2018-08-05T10:16:31.594Z,1018.51
2018-08-05T10:17:31.685Z,1018.48
2018-08-05T10:19:31.755Z,1018.43
2018-08-05T10:20:32.150Z,1018.48
2018-08-05T10:21:31.766Z,1018.44
2018-08-05T10:22:31.854Z,1018.40
2018-08-05T10:23:31.837Z,1018.42
2018-08-05T10:24:31.930Z,1018.41
2018-08-05T10:25:31.975Z,1018.39
2018-08-05T10:27:32.113Z,1018.42
2018-08-05T10:29:32.370Z,1018.40
2018-08-05T10:30:32.146Z,1018.42
2018-08-05T10:31:32.181Z,1018.38
2018-08-05T10:32:32.187Z,1018.39
2018-08-05T10:33:32.259Z,1018.36
2018-08-05T10:34:32.292Z,1018.35
2018-08-05T10:35:32.580Z,1018.37
2018-08-05T10:36:32.326Z,1018.38
2018-08-05T10:37:32.420Z,1018.39
2018-08-05T10:38:32.440Z,1018.38
2018-08-05T10:39:32.424Z,1018.40
2018-08-05T10:41:32.543Z,1018.36
2018-08-05T10:42:32.842Z,1018.40
2018-08-05T10:43:32.625Z,1018.36
2018-08-05T10:44:32.660Z,1018.36
2018-08-05T10:45:32.638Z,1018.42
2018-08-05T10:46:32.741Z,1018.36
2018-08-05T10:47:32.718Z,1018.41
2018-08-05T10:48:32.829Z,1018.39
2018-08-05T10:49:33.139Z,1018.40
2018-08-05T10:50:32.871Z,1018.38
2018-08-05T10:51:32.934Z,1018.38
2018-08-05T10:52:32.894Z,1018.38
2018-08-05T10:53:32.996Z,1018.36
2018-08-05T10:54:32.976Z,1018.31
2018-08-05T10:55:33.065Z,1018.30
2018-08-05T10:56:33.398Z,1018.30
2018-08-05T10:57:33.126Z,1018.27
2018-08-05T10:58:33.110Z,1018.27
2018-08-05T10:59:33.208Z,1018.28
2018-08-05T11:00:33.186Z,1018.35
2018-08-05T11:01:33.300Z,1018.31
2018-08-05T11:02:33.327Z,1018.35
2018-08-05T11:03:33.669Z,1018.32
2018-08-05T11:04:33.380Z,1018.34
2018-08-05T11:05:33.464Z,1018.30
2018-08-05T11:06:33.412Z,1018.34
2018-08-05T11:07:33.561Z,1018.32
2018-08-05T11:08:33.527Z,1018.36
2018-08-05T11:09:33.589Z,1018.35
2018-08-05T11:10:33.845Z,1018.32
2018-08-05T11:11:33.647Z,1018.29
2018-08-05T11:12:33.673Z,1018.28
2018-08-05T11:13:33.714Z,1018.29
2018-08-05T11:14:33.745Z,1018.31
2018-08-05T11:15:33.728Z,1018.25
2018-08-05T11:16:33.818Z,1018.25
2018-08-05T11:17:34.156Z,1018.23
2018-08-05T11:18:33.947Z,1018.22
2018-08-05T11:19:33.928Z,1018.23
2018-08-05T11:20:33.909Z,1018.25
2018-08-05T11:21:33.997Z,1018.16
2018-08-05T11:22:34.040Z,1018.17
2018-08-05T11:23:34.024Z,1018.17
2018-08-05T11:24:34.407Z,1018.15
2018-08-05T11:25:34.160Z,1018.10
2018-08-05T11:26:34.128Z,1018.14
2018-08-05T11:27:34.214Z,1018.12
2018-08-05T11:28:34.198Z,1018.10
2018-08-05T11:29:34.296Z,1018.08
2018-08-05T11:30:34.330Z,1018.10
2018-08-05T11:31:34.627Z,1018.10
2018-08-05T11:32:34.394Z,1018.11
2018-08-05T11:33:34.393Z,1018.15
2018-08-05T11:34:34.484Z,1018.07
2018-08-05T11:35:34.510Z,1018.03
2018-08-05T11:36:34.552Z,1018.08
2018-08-05T11:37:34.584Z,1018.07
2018-08-05T11:38:34.913Z,1018.08
2018-08-05T11:39:34.663Z,1018.07
2018-08-05T11:40:34.706Z,1018.11
2018-08-05T11:41:34.733Z,1018.01
2018-08-05T11:42:34.713Z,1017.95
2018-08-05T11:43:34.752Z,1018.00
2018-08-05T11:44:35.085Z,1018.05
2018-08-05T11:45:34.882Z,1018.07
2018-08-05T11:46:34.921Z,1018.12
2018-08-05T11:47:34.945Z,1018.03
2018-08-05T11:48:34.977Z,1017.98
2018-08-05T11:49:35.017Z,1018.00
2018-08-05T11:50:36.354Z,1018.01
2018-08-05T11:51:35.098Z,1017.98
2018-08-05T11:52:35.135Z,1017.96
2018-08-05T11:53:35.166Z,1017.94
2018-08-05T11:54:35.143Z,1017.97
2018-08-05T11:55:35.186Z,1017.99
2018-08-05T11:56:35.583Z,1017.92
2018-08-05T11:57:35.316Z,1017.93
2018-08-05T11:58:35.339Z,1017.99
2018-08-05T11:59:35.376Z,1017.92
2018-08-05T12:00:35.370Z,1017.91
2018-08-05T12:01:35.409Z,1017.87
2018-08-05T12:02:35.514Z,1017.91
2018-08-05T12:03:35.782Z,1017.89
2018-08-05T12:04:35.561Z,1017.89
2018-08-05T12:05:35.606Z,1017.87
2018-08-05T12:06:35.647Z,1017.95
2018-08-05T12:07:35.675Z,1017.89
2018-08-05T12:08:35.664Z,1017.90
2018-08-05T12:09:35.719Z,1017.92
2018-08-05T12:10:36.031Z,1017.84
2018-08-05T12:11:35.765Z,1017.89
2018-08-05T12:12:35.804Z,1017.92
2018-08-05T12:13:35.911Z,1017.92
2018-08-05T12:15:35.968Z,1017.86
2018-08-05T12:16:35.962Z,1017.92
2018-08-05T12:17:36.036Z,1017.86
2018-08-05T12:18:36.074Z,1017.88
2018-08-05T12:19:36.061Z,1017.89
2018-08-05T12:20:36.157Z,1017.91
2018-08-05T12:21:36.198Z,1017.86
2018-08-05T12:22:36.169Z,1017.85
2018-08-05T12:23:36.557Z,1017.86
2018-08-05T12:24:36.292Z,1017.87
2018-08-05T12:25:36.330Z,1017.86
2018-08-05T12:26:36.407Z,1017.85